Stolt Dipper — ZCMY3 — position and weather

sailwx.info

Track history (hours):
 
Tides and Currents Weather Stations Pressure Air Temp Water Temp Dewpoint Dewpoint Depression Visibility Wind Speed Wind Dir Waves Ship Positions

Stolt Dipper

Last reported at 2015-Jan-24 15:31 UTC. Time now 2015-Jan-26 02:25 UTC.
Position N 53°33' W 003°35'.

Length 96 m; draft 6.8 m.

Type: Ship (hazmat cat B). MMSI: 319036000.

Date/timePositionNaut miles runAvg speedWind from/ knotsBaromVisibWave heightAir tempDewpointWater temp
2015-Jan-24 15:31N 53°33' W 003°35'1111.8
2015-Jan-24 14:33N 53°32' W 003°16'9 8.6
2015-Jan-24 13:33N 53°28' W 003°03'8 8.2
2015-Jan-24 12:33N 53°20' W 002°58'3 3.0
2015-Jan-24 11:24N 53°18' W 002°54'3 0.2
2015-Jan-23 17:09N 53°17' W 002°49'3 5.5
2015-Jan-23 16:33N 53°18' W 002°54'3 2.7
2015-Jan-23 15:33N 53°20' W 002°57'3 2.7
2015-Jan-23 14:33N 53°22' W 002°59'5 5.2
2015-Jan-23 13:33N 53°27' W 003°02'7 7.3
2015-Jan-23 12:33N 53°31' W 003°13'7 7.1
2015-Jan-23 11:33N 53°29' W 003°24'0 0.3
2015-Jan-23 10:27N 53°29' W 003°24'0 0.0
2015-Jan-23 09:33N 53°29' W 003°24'0 0.1
2015-Jan-23 08:33N 53°29' W 003°24'0 0.1
2015-Jan-23 07:33N 53°29' W 003°24'33511.2
2015-Jan-22 01:33N 48°02' W 005°27'16410.2
2015-Jan-21 09:30N 46°19' W 002°19'1613.1
2015-Jan-21 08:17N 46°11' W 001°60'1013.9
2015-Jan-21 07:33N 46°09' W 001°45'1414.1
2015-Jan-21 06:33N 46°06' W 001°25'22 0.6
2015-Jan-19 15:33N 45°57' W 000°57'3 2.9
2015-Jan-19 14:33N 45°58' W 001°01'10 9.8
2015-Jan-19 13:33N 46°02' W 001°13'2 2.2
2015-Jan-19 12:32N 46°04' W 001°14'0 0.0
2015-Jan-19 11:31N 46°04' W 001°14'0 0.0
2015-Jan-19 10:32N 46°04' W 001°14'0 0.0
2015-Jan-19 09:32N 46°04' W 001°14'0 0.1
2015-Jan-19 08:32N 46°04' W 001°15'0 0.1
2015-Jan-19 07:32N 46°05' W 001°15'0 0.0
2015-Jan-19 06:28N 46°05' W 001°15'0 0.0
2015-Jan-19 05:32N 46°04' W 001°15'0 0.0
2015-Jan-19 04:32N 46°04' W 001°15'0 0.0
2015-Jan-19 03:32N 46°04' W 001°15'0 0.0
2015-Jan-19 02:32N 46°04' W 001°14'0 0.0
2015-Jan-19 01:31N 46°04' W 001°14'0 0.0
2015-Jan-19 00:31N 46°04' W 001°14'0 0.0
2015-Jan-18 23:32N 46°04' W 001°14'0 0.0
2015-Jan-18 22:32N 46°05' W 001°14'0 0.0
2015-Jan-18 21:32N 46°05' W 001°14'0 0.1
2015-Jan-18 20:32N 46°05' W 001°14'6 5.9
2015-Jan-18 19:33N 46°06' W 001°22'1211.2
2015-Jan-18 18:29N 46°08' W 001°39'1011.2
2015-Jan-18 17:33N 46°11' W 001°54'1212.2
2015-Jan-18 16:33N 46°16' W 002°10'15012.5
2015-Jan-18 04:33N 47°47' W 005°05'1313.1
2015-Jan-18 03:33N 47°57' W 005°18'1313.2
2015-Jan-18 02:33N 48°06' W 005°32'27310.1
2015-Jan-16 23:33N 50°32' E 000°23'1313.5
2015-Jan-16 22:33N 50°37' E 000°42'1313.3
2015-Jan-16 21:32N 50°45' E 000°59'1412.3
2015-Jan-16 20:24N 50°54' E 001°16'1011.9
2015-Jan-16 19:33N 51°01' E 001°28'1212.5
2015-Jan-16 18:33N 51°10' E 001°42'1313.5
2015-Jan-16 17:33N 51°22' E 001°52'1614.1
2015-Jan-16 16:24N 51°35' E 002°08'137 9.1
2015-Jan-16 01:24N 53°20' E 004°32'4 4.1
2015-Jan-16 00:24N 53°24' E 004°34'3 4.0
2015-Jan-15 23:33N 53°26' E 004°37'4 4.0
2015-Jan-15 22:34N 53°29' E 004°42'5 5.3
2015-Jan-15 21:33N 53°31' E 004°50'6 6.4
2015-Jan-15 20:34N 53°34' E 004°60'8 7.7
2015-Jan-15 19:33N 53°36' E 005°13'9 9.2
2015-Jan-15 18:33N 53°39' E 005°27'1010.2
2015-Jan-15 17:33N 53°42' E 005°44'1110.7
2015-Jan-15 16:32N 53°45' E 006°01'4510.2
2015-Jan-15 12:06N 53°57' E 007°15'810.0
2015-Jan-15 11:18N 53°60' E 007°28'810.2
2015-Jan-15 10:34N 54°02' E 007°40'1211.6
2015-Jan-15 09:33N 54°01' E 007°60'1312.7
2015-Jan-15 08:33N 53°60' E 008°22'1312.5
2015-Jan-15 07:34N 53°55' E 008°41'1110.8
2015-Jan-15 06:33N 53°51' E 008°58'10 9.9
2015-Jan-15 05:34N 53°53' E 009°15'1111.0
2015-Jan-15 04:33N 53°44' E 009°27'1212.1
2015-Jan-15 03:34N 53°34' E 009°39'1110.8
2015-Jan-15 02:34N 53°31' E 009°56'1 1.2
2015-Jan-15 01:32N 53°30' E 009°58'0 0.0
2015-Jan-15 00:32N 53°30' E 009°58'0 0.0
2015-Jan-14 23:32N 53°30' E 009°58'0 0.0
2015-Jan-14 22:32N 53°30' E 009°58'0 0.0
2015-Jan-14 21:26N 53°30' E 009°58'0 0.0
2015-Jan-14 20:29N 53°30' E 009°58'0 0.0
2015-Jan-14 19:26N 53°30' E 009°58'0 0.0
2015-Jan-14 18:26N 53°30' E 009°58'0 0.0
2015-Jan-14 17:32N 53°30' E 009°58'0 0.0
2015-Jan-14 16:32N 53°30' E 009°58'  
Track history (hours):
 
Tides and Currents Weather Stations Pressure Air Temp Water Temp Dewpoint Dewpoint Depression Visibility Wind Speed Wind Dir Waves Ship Positions

Stolt Dipper

Last reported at 2015-Jan-24 15:31 UTC. Time now 2015-Jan-26 02:25 UTC.
Position N 53°33' W 003°35'.

Length 96 m; draft 6.8 m.

Type: Ship (hazmat cat B). MMSI: 319036000.

Date/timePositionNaut miles runAvg speedWind from/ knotsBaromVisibWave heightAir tempDewpointWater temp
2015-Jan-24 15:31N 53°33' W 003°35'1111.8
2015-Jan-24 14:33N 53°32' W 003°16'9 8.6
2015-Jan-24 13:33N 53°28' W 003°03'8 8.2
2015-Jan-24 12:33N 53°20' W 002°58'3 3.0
2015-Jan-24 11:24N 53°18' W 002°54'3 0.2
2015-Jan-23 17:09N 53°17' W 002°49'3 5.5
2015-Jan-23 16:33N 53°18' W 002°54'3 2.7
2015-Jan-23 15:33N 53°20' W 002°57'3 2.7
2015-Jan-23 14:33N 53°22' W 002°59'5 5.2
2015-Jan-23 13:33N 53°27' W 003°02'7 7.3
2015-Jan-23 12:33N 53°31' W 003°13'7 7.1
2015-Jan-23 11:33N 53°29' W 003°24'0 0.3
2015-Jan-23 10:27N 53°29' W 003°24'0 0.0
2015-Jan-23 09:33N 53°29' W 003°24'0 0.1
2015-Jan-23 08:33N 53°29' W 003°24'0 0.1
2015-Jan-23 07:33N 53°29' W 003°24'33511.2
2015-Jan-22 01:33N 48°02' W 005°27'16410.2
2015-Jan-21 09:30N 46°19' W 002°19'1613.1
2015-Jan-21 08:17N 46°11' W 001°60'1013.9
2015-Jan-21 07:33N 46°09' W 001°45'1414.1
2015-Jan-21 06:33N 46°06' W 001°25'22 0.6
2015-Jan-19 15:33N 45°57' W 000°57'3 2.9
2015-Jan-19 14:33N 45°58' W 001°01'10 9.8
2015-Jan-19 13:33N 46°02' W 001°13'2 2.2
2015-Jan-19 12:32N 46°04' W 001°14'0 0.0
2015-Jan-19 11:31N 46°04' W 001°14'0 0.0
2015-Jan-19 10:32N 46°04' W 001°14'0 0.0
2015-Jan-19 09:32N 46°04' W 001°14'0 0.1
2015-Jan-19 08:32N 46°04' W 001°15'0 0.1
2015-Jan-19 07:32N 46°05' W 001°15'0 0.0
2015-Jan-19 06:28N 46°05' W 001°15'0 0.0
2015-Jan-19 05:32N 46°04' W 001°15'0 0.0
2015-Jan-19 04:32N 46°04' W 001°15'0 0.0
2015-Jan-19 03:32N 46°04' W 001°15'0 0.0
2015-Jan-19 02:32N 46°04' W 001°14'0 0.0
2015-Jan-19 01:31N 46°04' W 001°14'0 0.0
2015-Jan-19 00:31N 46°04' W 001°14'0 0.0
2015-Jan-18 23:32N 46°04' W 001°14'0 0.0
2015-Jan-18 22:32N 46°05' W 001°14'0 0.0
2015-Jan-18 21:32N 46°05' W 001°14'0 0.1
2015-Jan-18 20:32N 46°05' W 001°14'6 5.9
2015-Jan-18 19:33N 46°06' W 001°22'1211.2
2015-Jan-18 18:29N 46°08' W 001°39'1011.2
2015-Jan-18 17:33N 46°11' W 001°54'1212.2
2015-Jan-18 16:33N 46°16' W 002°10'15012.5
2015-Jan-18 04:33N 47°47' W 005°05'1313.1
2015-Jan-18 03:33N 47°57' W 005°18'1313.2
2015-Jan-18 02:33N 48°06' W 005°32'27310.1
2015-Jan-16 23:33N 50°32' E 000°23'1313.5
2015-Jan-16 22:33N 50°37' E 000°42'1313.3
2015-Jan-16 21:32N 50°45' E 000°59'1412.3
2015-Jan-16 20:24N 50°54' E 001°16'1011.9
2015-Jan-16 19:33N 51°01' E 001°28'1212.5
2015-Jan-16 18:33N 51°10' E 001°42'1313.5
2015-Jan-16 17:33N 51°22' E 001°52'1614.1
2015-Jan-16 16:24N 51°35' E 002°08'137 9.1
2015-Jan-16 01:24N 53°20' E 004°32'4 4.1
2015-Jan-16 00:24N 53°24' E 004°34'3 4.0
2015-Jan-15 23:33N 53°26' E 004°37'4 4.0
2015-Jan-15 22:34N 53°29' E 004°42'5 5.3
2015-Jan-15 21:33N 53°31' E 004°50'6 6.4
2015-Jan-15 20:34N 53°34' E 004°60'8 7.7
2015-Jan-15 19:33N 53°36' E 005°13'9 9.2
2015-Jan-15 18:33N 53°39' E 005°27'1010.2
2015-Jan-15 17:33N 53°42' E 005°44'1110.7
2015-Jan-15 16:32N 53°45' E 006°01'4510.2
2015-Jan-15 12:06N 53°57' E 007°15'810.0
2015-Jan-15 11:18N 53°60' E 007°28'810.2
2015-Jan-15 10:34N 54°02' E 007°40'1211.6
2015-Jan-15 09:33N 54°01' E 007°60'1312.7
2015-Jan-15 08:33N 53°60' E 008°22'1312.5
2015-Jan-15 07:34N 53°55' E 008°41'1110.8
2015-Jan-15 06:33N 53°51' E 008°58'10 9.9
2015-Jan-15 05:34N 53°53' E 009°15'1111.0
2015-Jan-15 04:33N 53°44' E 009°27'1212.1
2015-Jan-15 03:34N 53°34' E 009°39'1110.8
2015-Jan-15 02:34N 53°31' E 009°56'1 1.2
2015-Jan-15 01:32N 53°30' E 009°58'0 0.0
2015-Jan-15 00:32N 53°30' E 009°58'0 0.0
2015-Jan-14 23:32N 53°30' E 009°58'0 0.0
2015-Jan-14 22:32N 53°30' E 009°58'0 0.0
2015-Jan-14 21:26N 53°30' E 009°58'0 0.0
2015-Jan-14 20:29N 53°30' E 009°58'0 0.0
2015-Jan-14 19:26N 53°30' E 009°58'0 0.0
2015-Jan-14 18:26N 53°30' E 009°58'0 0.0
2015-Jan-14 17:32N 53°30' E 009°58'0 0.0
2015-Jan-14 16:32N 53°30' E 009°58'  

Dump ship's entire track history